createdAt,value
2022-10-06T00:01:43.633Z,14.77
2022-10-06T00:04:47.555Z,10.88
2022-10-06T00:07:49.762Z,8.65
2022-10-06T00:10:56.058Z,12.37
2022-10-06T00:13:57.636Z,7.97
2022-10-06T00:16:59.501Z,10.10
2022-10-06T00:20:01.069Z,12.20
2022-10-06T00:23:06.195Z,9.63
2022-10-06T00:26:16.721Z,9.35
2022-10-06T00:29:18.923Z,12.30
2022-10-06T00:32:20.911Z,11.12
2022-10-06T00:35:23.287Z,10.27
2022-10-06T00:38:25.578Z,9.07
2022-10-06T00:41:27.411Z,12.05
2022-10-06T00:44:29.207Z,11.02
2022-10-06T00:47:32.947Z,9.32
2022-10-06T00:50:36.015Z,10.98
2022-10-06T00:53:37.800Z,10.20
2022-10-06T00:56:40.994Z,10.13
2022-10-06T00:59:42.979Z,11.88
2022-10-06T01:03:09.872Z,10.73
2022-10-06T01:06:11.949Z,17.12
2022-10-06T01:09:16.360Z,12.40
2022-10-06T01:12:19.404Z,12.30
2022-10-06T01:15:22.203Z,10.65
2022-10-06T01:18:27.440Z,13.23
2022-10-06T01:21:41.542Z,11.57
2022-10-06T01:24:46.885Z,11.38
2022-10-06T01:27:54.041Z,11.12
2022-10-06T01:30:57.918Z,11.07
2022-10-06T01:34:00.054Z,9.80
2022-10-06T01:37:01.640Z,16.12
2022-10-06T01:40:03.681Z,9.60
2022-10-06T01:43:05.250Z,18.80
2022-10-06T01:46:07.180Z,12.18
2022-10-06T01:49:08.756Z,12.98
2022-10-06T01:52:13.599Z,10.20
2022-10-06T01:55:15.267Z,12.65
2022-10-06T01:58:17.300Z,14.10
2022-10-06T02:01:19.143Z,13.95
2022-10-06T02:04:21.297Z,13.65
2022-10-06T02:07:22.973Z,10.68
2022-10-06T02:10:24.939Z,14.23
2022-10-06T02:13:28.131Z,14.13
2022-10-06T02:16:30.141Z,11.18
2022-10-06T02:19:31.795Z,11.32
2022-10-06T02:22:38.794Z,12.60
2022-10-06T02:25:40.668Z,12.68
2022-10-06T02:28:42.257Z,13.43
2022-10-06T02:31:45.107Z,12.73
2022-10-06T02:34:46.904Z,12.23
2022-10-06T02:37:49.654Z,15.15
2022-10-06T02:40:51.960Z,12.48
2022-10-06T02:43:55.357Z,13.77
2022-10-06T02:46:57.019Z,13.73
2022-10-06T02:50:02.006Z,13.93
2022-10-06T02:53:07.130Z,15.98
2022-10-06T02:56:17.639Z,12.88
2022-10-06T02:59:19.190Z,17.90
2022-10-06T03:02:20.941Z,20.48
2022-10-06T03:05:22.761Z,25.33
2022-10-06T03:08:24.331Z,23.83
2022-10-06T03:11:44.950Z,19.40
2022-10-06T03:14:46.863Z,13.52
2022-10-06T03:17:50.197Z,14.85
2022-10-06T03:20:54.031Z,30.83
2022-10-06T03:23:57.356Z,22.67
2022-10-06T03:26:59.333Z,15.65
2022-10-06T03:30:01.053Z,24.12
2022-10-06T03:33:02.608Z,29.20
2022-10-06T03:36:09.863Z,15.77
2022-10-06T03:39:11.787Z,22.35
2022-10-06T03:42:13.356Z,18.90
2022-10-06T03:45:15.118Z,18.58
2022-10-06T03:48:16.978Z,16.50
2022-10-06T03:51:27.796Z,21.65
2022-10-06T03:54:29.644Z,22.42
2022-10-06T03:57:31.251Z,17.58
2022-10-06T04:00:32.883Z,20.67
2022-10-06T04:03:35.077Z,15.75
2022-10-06T04:06:39.271Z,16.87
2022-10-06T04:09:40.834Z,18.77
2022-10-06T04:12:42.408Z,15.35
2022-10-06T04:15:45.513Z,17.55
2022-10-06T04:18:50.679Z,27.85
2022-10-06T04:21:52.713Z,25.40
2022-10-06T04:24:55.138Z,25.02
2022-10-06T04:27:57.923Z,17.15
2022-10-06T04:31:01.722Z,21.90
2022-10-06T04:34:04.979Z,33.03
2022-10-06T04:37:07.055Z,22.92
2022-10-06T04:40:09.304Z,20.10
2022-10-06T04:43:11.027Z,17.70
2022-10-06T04:46:38.008Z,17.17
2022-10-06T04:49:35.339Z,17.35
2022-10-06T04:52:36.937Z,14.40
2022-10-06T04:55:38.833Z,20.65
2022-10-06T04:58:43.348Z,15.82
2022-10-06T05:01:44.994Z,21.90
2022-10-06T05:04:47.056Z,18.80
2022-10-06T05:07:48.697Z,15.05
2022-10-06T05:10:50.245Z,20.25
2022-10-06T05:13:54.996Z,23.60
2022-10-06T05:16:57.046Z,17.55
2022-10-06T05:19:58.717Z,14.10
2022-10-06T05:23:00.367Z,20.30
2022-10-06T05:26:02.236Z,22.50
2022-10-06T05:29:04.673Z,25.15
2022-10-06T05:32:06.469Z,21.30
2022-10-06T05:35:08.592Z,19.05
2022-10-06T05:38:11.888Z,21.52
2022-10-06T05:41:24.336Z,17.87
2022-10-06T05:44:25.888Z,19.37
2022-10-06T05:47:27.469Z,16.27
2022-10-06T05:50:29.421Z,17.67
2022-10-06T05:53:32.923Z,21.08
2022-10-06T05:56:37.052Z,16.40
2022-10-06T05:59:38.620Z,16.58
2022-10-06T06:02:40.221Z,21.77
2022-10-06T06:05:43.238Z,16.05
2022-10-06T06:08:45.800Z,16.02
2022-10-06T06:11:50.170Z,14.40
2022-10-06T06:15:10.567Z,17.37
2022-10-06T06:18:13.089Z,15.93
2022-10-06T06:21:15.020Z,17.77
2022-10-06T06:24:16.730Z,13.80
2022-10-06T06:27:18.620Z,15.95
2022-10-06T06:30:21.249Z,14.87
2022-10-06T06:33:23.216Z,14.23
2022-10-06T06:36:26.264Z,13.10
2022-10-06T06:39:28.021Z,11.12
2022-10-06T06:42:29.739Z,18.15
2022-10-06T06:45:31.634Z,11.77
2022-10-06T06:48:33.480Z,16.20
2022-10-06T06:51:37.405Z,16.37
2022-10-06T06:54:40.568Z,19.05
2022-10-06T06:57:42.837Z,14.23
2022-10-06T07:00:44.961Z,15.00
2022-10-06T07:03:59.127Z,13.80
2022-10-06T07:07:00.916Z,12.35
2022-10-06T07:10:02.830Z,11.23
2022-10-06T07:13:06.972Z,13.50
2022-10-06T07:16:37.379Z,14.68
2022-10-06T07:19:50.754Z,17.33
2022-10-06T07:23:11.060Z,20.52
2022-10-06T07:26:12.647Z,17.15
2022-10-06T07:29:14.289Z,15.25
2022-10-06T07:32:16.304Z,24.08
2022-10-06T07:35:20.535Z,11.95
2022-10-06T07:38:26.180Z,14.60
2022-10-06T07:41:29.497Z,17.80
2022-10-06T07:44:31.052Z,15.57
2022-10-06T07:47:33.298Z,14.85
2022-10-06T07:50:38.309Z,16.67
2022-10-06T07:53:40.301Z,10.38
2022-10-06T07:56:42.280Z,13.85
2022-10-06T07:59:44.456Z,12.55
2022-10-06T08:02:46.254Z,10.93
2022-10-06T08:05:50.505Z,10.07
2022-10-06T08:08:56.707Z,11.55
2022-10-06T08:12:18.740Z,12.52
2022-10-06T08:15:20.333Z,9.63
2022-10-06T08:18:44.349Z,13.10
2022-10-06T08:21:44.308Z,8.00
2022-10-06T08:25:04.734Z,9.93
2022-10-06T08:28:07.505Z,8.77
2022-10-06T08:31:13.229Z,15.35
2022-10-06T08:34:15.204Z,13.60
2022-10-06T08:37:24.138Z,16.77
2022-10-06T08:40:27.660Z,16.87
2022-10-06T08:43:31.157Z,13.43
2022-10-06T08:46:46.550Z,13.70
2022-10-06T08:49:50.194Z,19.10
2022-10-06T08:53:24.452Z,31.30
2022-10-06T08:56:45.045Z,9.90
2022-10-06T08:59:50.020Z,19.50
2022-10-06T09:02:52.139Z,13.30
2022-10-06T09:06:01.047Z,8.50
2022-10-06T09:09:38.816Z,14.50
2022-10-06T09:12:47.685Z,8.07
2022-10-06T09:16:10.077Z,10.27
2022-10-06T09:19:24.559Z,19.02
2022-10-06T09:22:32.107Z,10.18
2022-10-06T09:25:34.087Z,9.30
2022-10-06T09:28:37.059Z,11.05
2022-10-06T09:31:44.939Z,10.55
2022-10-06T09:34:51.409Z,6.87
2022-10-06T09:37:54.558Z,6.20
2022-10-06T09:40:56.610Z,11.70
2022-10-06T09:44:01.668Z,7.87
2022-10-06T09:47:45.431Z,7.32
2022-10-06T09:51:17.002Z,4.85
2022-10-06T09:54:18.770Z,8.27
2022-10-06T09:57:25.363Z,5.50
2022-10-06T10:04:08.621Z,6.32
2022-10-06T10:07:33.231Z,4.85
2022-10-06T10:10:36.675Z,7.37
2022-10-06T10:13:43.761Z,5.07
2022-10-06T10:16:50.940Z,3.85
2022-10-06T10:19:56.006Z,9.00
2022-10-06T10:23:01.343Z,5.25
2022-10-06T10:26:27.154Z,5.78
2022-10-06T10:29:48.957Z,9.50
2022-10-06T10:33:18.889Z,7.82
2022-10-06T10:36:26.224Z,14.68
2022-10-06T10:39:42.145Z,7.25
2022-10-06T10:43:01.210Z,15.98
2022-10-06T10:46:15.085Z,7.35
2022-10-06T10:49:25.778Z,4.87
2022-10-06T10:52:36.501Z,16.92
2022-10-06T10:55:44.873Z,4.53
2022-10-06T10:58:50.654Z,5.03
2022-10-06T11:02:01.090Z,11.23
2022-10-06T11:05:17.490Z,5.43
2022-10-06T11:08:47.565Z,14.13
2022-10-06T11:12:33.804Z,8.43
2022-10-06T11:15:57.680Z,4.53
2022-10-06T11:19:29.998Z,269.25
2022-10-06T11:22:44.758Z,3.25
2022-10-06T11:26:10.179Z,13.25
2022-10-06T11:29:49.598Z,5.18
2022-10-06T11:33:09.986Z,14.75
2022-10-06T11:36:19.291Z,6.25
2022-10-06T11:39:26.964Z,6.72
2022-10-06T11:42:41.068Z,8.65
2022-10-06T11:45:54.715Z,7.25
2022-10-06T11:49:30.461Z,4.85
2022-10-06T11:52:31.973Z,12.43
2022-10-06T11:55:33.885Z,7.22
2022-10-06T11:58:50.773Z,4.12
2022-10-06T12:01:56.057Z,6.25
2022-10-06T12:05:28.499Z,6.15
2022-10-06T12:08:40.642Z,5.12
2022-10-06T12:11:44.084Z,10.30
2022-10-06T12:18:30.937Z,4.03
2022-10-06T12:21:36.067Z,7.28
2022-10-06T12:24:44.410Z,8.85
2022-10-06T12:28:11.030Z,4.65
2022-10-06T12:31:21.501Z,6.25
2022-10-06T12:34:43.956Z,9.48
2022-10-06T12:37:54.437Z,10.40
2022-10-06T12:40:57.806Z,6.03
2022-10-06T12:44:00.754Z,9.68
2022-10-06T12:47:07.143Z,11.77
2022-10-06T12:50:25.400Z,4.57
2022-10-06T12:53:36.962Z,7.90
2022-10-06T12:56:41.220Z,10.23
2022-10-06T12:59:43.120Z,9.88
2022-10-06T13:02:45.500Z,11.25
2022-10-06T13:06:04.580Z,7.45
2022-10-06T13:09:14.436Z,6.50
2022-10-06T13:12:37.961Z,11.48
2022-10-06T13:15:43.299Z,6.57
2022-10-06T13:18:44.929Z,5.78
2022-10-06T13:21:47.095Z,6.00
2022-10-06T13:24:49.004Z,7.93
2022-10-06T13:27:52.072Z,7.97
2022-10-06T13:30:59.804Z,13.00
2022-10-06T13:34:12.150Z,7.65
2022-10-06T13:37:15.619Z,9.95
2022-10-06T13:40:47.318Z,4.95
2022-10-06T13:44:00.309Z,11.98
2022-10-06T13:47:16.762Z,7.32
2022-10-06T13:50:20.152Z,10.60
2022-10-06T13:53:25.762Z,9.70
2022-10-06T13:56:39.095Z,6.12
2022-10-06T13:59:41.347Z,5.68
2022-10-06T14:02:48.815Z,7.70
2022-10-06T14:05:52.428Z,4.60
2022-10-06T14:08:57.619Z,4.55
2022-10-06T14:12:13.047Z,9.30
2022-10-06T14:15:24.695Z,6.75
2022-10-06T14:18:33.486Z,7.00
2022-10-06T14:21:41.513Z,4.47
2022-10-06T14:24:51.205Z,9.45
2022-10-06T14:27:52.799Z,8.13
2022-10-06T14:30:56.378Z,6.10
2022-10-06T14:33:58.101Z,7.28
2022-10-06T14:37:00.028Z,7.85
2022-10-06T14:40:02.304Z,11.48
2022-10-06T14:43:04.169Z,5.45
2022-10-06T14:46:09.645Z,4.37
2022-10-06T14:49:14.043Z,6.82
2022-10-06T14:52:16.002Z,4.32
2022-10-06T14:55:17.590Z,7.47
2022-10-06T14:58:19.493Z,5.32
2022-10-06T15:01:25.298Z,5.65
2022-10-06T15:04:28.121Z,7.47
2022-10-06T15:07:48.590Z,18.87
2022-10-06T15:10:54.012Z,10.43
2022-10-06T15:13:58.403Z,4.90
2022-10-06T15:17:00.277Z,4.72
2022-10-06T15:20:02.063Z,7.55
2022-10-06T15:23:03.759Z,7.55
2022-10-06T15:26:24.777Z,6.20
2022-10-06T15:29:26.958Z,6.57
2022-10-06T15:32:28.537Z,7.93
2022-10-06T15:35:32.468Z,10.70
2022-10-06T15:38:36.444Z,12.07
2022-10-06T15:41:39.803Z,7.12
2022-10-06T15:44:41.338Z,5.85
2022-10-06T15:47:43.196Z,5.53
2022-10-06T15:50:44.812Z,5.60
2022-10-06T15:53:46.604Z,11.05
2022-10-06T15:56:50.777Z,7.50
2022-10-06T15:59:52.777Z,7.80
2022-10-06T16:02:54.754Z,15.45
2022-10-06T16:06:00.261Z,14.60
2022-10-06T16:09:01.808Z,10.70
2022-10-06T16:12:06.143Z,10.45
2022-10-06T16:15:08.205Z,8.65
2022-10-06T16:18:10.033Z,10.93
2022-10-06T16:21:11.626Z,14.68
2022-10-06T16:24:13.575Z,15.65
2022-10-06T16:27:16.027Z,18.10
2022-10-06T16:30:17.629Z,19.65
2022-10-06T16:33:19.208Z,23.87
2022-10-06T16:36:21.252Z,15.30
2022-10-06T16:39:23.727Z,18.83
2022-10-06T16:42:25.343Z,17.15
2022-10-06T16:45:26.930Z,14.93
2022-10-06T16:48:30.050Z,35.30
2022-10-06T16:51:34.345Z,41.53
2022-10-06T16:54:35.879Z,37.97
2022-10-06T16:57:37.454Z,35.80
2022-10-06T17:00:39.463Z,36.70
2022-10-06T17:03:41.694Z,33.47
2022-10-06T17:06:45.763Z,40.92
2022-10-06T17:10:08.521Z,43.28
2022-10-06T17:13:09.437Z,53.40
2022-10-06T17:16:13.983Z,85.90
2022-10-06T17:19:17.326Z,88.07
2022-10-06T17:22:19.208Z,77.97
2022-10-06T17:25:22.550Z,63.75
2022-10-06T17:28:24.234Z,51.95
2022-10-06T17:31:33.044Z,45.00
2022-10-06T17:34:34.690Z,44.00
2022-10-06T17:37:37.201Z,45.08
2022-10-06T17:40:45.133Z,40.78
2022-10-06T17:43:49.624Z,40.55
2022-10-06T17:46:56.715Z,35.65
2022-10-06T17:49:58.934Z,41.15
2022-10-06T17:53:01.419Z,35.00
2022-10-06T17:56:07.685Z,32.95
2022-10-06T17:59:16.025Z,46.83
2022-10-06T18:02:18.076Z,40.80
2022-10-06T18:05:19.693Z,43.42
2022-10-06T18:08:23.741Z,43.15
2022-10-06T18:12:04.357Z,35.85
2022-10-06T18:15:06.289Z,40.90
2022-10-06T18:18:08.615Z,45.88
2022-10-06T18:21:10.598Z,46.72
2022-10-06T18:24:14.129Z,47.25
2022-10-06T18:27:16.295Z,38.85
2022-10-06T18:30:18.160Z,35.60
2022-10-06T18:35:57.481Z,39.72
2022-10-06T18:36:42.890Z,39.53
2022-10-06T18:39:44.673Z,32.50
2022-10-06T18:42:47.566Z,36.65
2022-10-06T18:46:08.583Z,35.15
2022-10-06T18:49:16.453Z,39.22
2022-10-06T18:52:18.317Z,42.13
2022-10-06T18:55:21.038Z,38.50
2022-10-06T18:58:23.203Z,32.88
2022-10-06T19:01:30.073Z,44.70
2022-10-06T19:04:36.356Z,47.60
2022-10-06T19:07:38.759Z,44.30
2022-10-06T19:11:00.797Z,44.45
2022-10-06T19:14:03.247Z,45.88
2022-10-06T19:17:13.834Z,60.63
2022-10-06T19:20:15.986Z,59.45
2022-10-06T19:23:19.093Z,61.00
2022-10-06T19:26:22.962Z,63.47
2022-10-06T19:29:27.332Z,82.78
2022-10-06T19:32:34.551Z,83.37
2022-10-06T19:35:36.717Z,105.28
2022-10-06T19:38:39.054Z,99.47
2022-10-06T19:42:00.710Z,117.65
2022-10-06T19:45:03.792Z,106.97
2022-10-06T19:48:05.698Z,103.72
2022-10-06T19:51:17.538Z,109.00
2022-10-06T19:54:19.876Z,111.12
2022-10-06T19:57:21.998Z,99.03
2022-10-06T20:00:27.214Z,101.43
2022-10-06T20:03:30.403Z,94.72
2022-10-06T20:06:35.129Z,95.60
2022-10-06T20:09:36.732Z,85.28
2022-10-06T20:12:39.410Z,87.50
2022-10-06T20:15:40.960Z,73.75
2022-10-06T20:18:44.144Z,72.90
2022-10-06T20:21:47.275Z,73.50
2022-10-06T20:24:48.983Z,72.25
2022-10-06T20:27:50.876Z,78.32
2022-10-06T20:30:53.476Z,64.25
2022-10-06T20:33:58.422Z,68.57
2022-10-06T20:37:05.266Z,70.20
2022-10-06T20:40:26.477Z,59.13
2022-10-06T20:43:28.754Z,56.40
2022-10-06T20:46:33.177Z,51.72
2022-10-06T20:49:34.874Z,43.95
2022-10-06T20:52:37.021Z,35.60
2022-10-06T20:55:38.566Z,34.00
2022-10-06T20:58:44.148Z,39.85
2022-10-06T21:01:47.425Z,27.98
2022-10-06T21:04:49.384Z,28.77
2022-10-06T21:07:51.043Z,26.75
2022-10-06T21:11:03.293Z,26.00
2022-10-06T21:14:07.419Z,23.33
2022-10-06T21:17:09.109Z,31.00
2022-10-06T21:20:11.172Z,34.83
2022-10-06T21:23:13.628Z,37.42
2022-10-06T21:26:18.048Z,33.45
2022-10-06T21:29:20.619Z,35.83
2022-10-06T21:32:22.617Z,27.35
2022-10-06T21:35:24.631Z,26.70
2022-10-06T21:38:26.920Z,28.73
2022-10-06T21:41:36.413Z,23.08
2022-10-06T21:44:38.106Z,27.55
2022-10-06T21:47:40.132Z,23.67
2022-10-06T21:50:41.864Z,26.23
2022-10-06T21:53:44.061Z,19.73
2022-10-06T21:56:46.321Z,25.73
2022-10-06T21:59:48.082Z,30.62
2022-10-06T22:02:51.057Z,27.87
2022-10-06T22:05:52.767Z,24.50
2022-10-06T22:08:55.883Z,28.20
2022-10-06T22:11:58.449Z,34.17
2022-10-06T22:15:00.433Z,22.80
2022-10-06T22:18:02.519Z,23.60
2022-10-06T22:21:14.890Z,31.35
2022-10-06T22:24:21.634Z,27.00
2022-10-06T22:27:24.156Z,24.95
2022-10-06T22:30:26.196Z,29.27
2022-10-06T22:33:27.871Z,32.60
2022-10-06T22:36:29.845Z,35.38
2022-10-06T22:39:32.068Z,39.47
2022-10-06T22:42:33.721Z,33.90
2022-10-06T22:45:35.799Z,32.80
2022-10-06T22:48:38.577Z,31.95
2022-10-06T22:51:40.272Z,36.72
2022-10-06T22:54:42.268Z,29.70
2022-10-06T22:57:44.209Z,38.00
2022-10-06T23:00:46.275Z,28.60
2022-10-06T23:03:48.477Z,24.50
2022-10-06T23:06:50.184Z,28.52
2022-10-06T23:09:52.113Z,27.95
2022-10-06T23:12:55.461Z,26.35
2022-10-06T23:16:08.345Z,26.42
2022-10-06T23:19:10.895Z,29.17
2022-10-06T23:22:12.540Z,28.20
2022-10-06T23:25:14.761Z,25.95
2022-10-06T23:28:16.509Z,25.75
2022-10-06T23:31:18.455Z,24.33
2022-10-06T23:34:20.400Z,29.25
2022-10-06T23:37:22.064Z,26.62
2022-10-06T23:40:24.034Z,26.67
2022-10-06T23:43:25.763Z,24.70
2022-10-06T23:46:27.880Z,34.20
2022-10-06T23:49:30.032Z,39.67
2022-10-06T23:52:31.874Z,21.17
2022-10-06T23:55:33.739Z,25.75
2022-10-06T23:58:35.739Z,29.27
